sensor_id;sensor_type;location;lat;lon;timestamp;temperature;humidity
64670;DHT22;51080;51.690;5.174;2022-07-23T00:02:27;16.90;65.10
64670;DHT22;51080;51.690;5.174;2022-07-23T00:08:42;16.80;64.90
64670;DHT22;51080;51.690;5.174;2022-07-23T00:14:58;16.70;65.00
64670;DHT22;51080;51.690;5.174;2022-07-23T00:21:11;16.50;65.60
64670;DHT22;51080;51.690;5.174;2022-07-23T00:27:26;16.40;65.80
64670;DHT22;51080;51.690;5.174;2022-07-23T00:33:40;16.30;65.70
64670;DHT22;51080;51.690;5.174;2022-07-23T00:39:55;16.30;65.70
64670;DHT22;51080;51.690;5.174;2022-07-23T00:46:10;16.40;66.20
64670;DHT22;51080;51.690;5.174;2022-07-23T00:52:25;16.30;65.70
64670;DHT22;51080;51.690;5.174;2022-07-23T00:58:42;16.20;65.80
64670;DHT22;51080;51.690;5.174;2022-07-23T01:04:57;16.20;66.00
64670;DHT22;51080;51.690;5.174;2022-07-23T01:11:13;16.10;66.10
64670;DHT22;51080;51.690;5.174;2022-07-23T01:17:28;16.00;66.00
64670;DHT22;51080;51.690;5.174;2022-07-23T01:23:43;15.90;66.10
64670;DHT22;51080;51.690;5.174;2022-07-23T01:30:00;15.80;66.30
64670;DHT22;51080;51.690;5.174;2022-07-23T01:36:15;15.70;66.30
64670;DHT22;51080;51.690;5.174;2022-07-23T01:42:29;15.60;66.40
64670;DHT22;51080;51.690;5.174;2022-07-23T01:48:45;15.50;66.50
64670;DHT22;51080;51.690;5.174;2022-07-23T01:54:59;15.40;66.50
64670;DHT22;51080;51.690;5.174;2022-07-23T02:01:13;15.40;66.60
64670;DHT22;51080;51.690;5.174;2022-07-23T02:07:28;15.50;66.60
64670;DHT22;51080;51.690;5.174;2022-07-23T02:13:42;15.70;66.50
64670;DHT22;51080;51.690;5.174;2022-07-23T02:19:55;15.80;66.30
64670;DHT22;51080;51.690;5.174;2022-07-23T02:26:10;15.80;66.30
64670;DHT22;51080;51.690;5.174;2022-07-23T02:32:26;15.80;66.40
64670;DHT22;51080;51.690;5.174;2022-07-23T02:38:40;15.70;66.50
64670;DHT22;51080;51.690;5.174;2022-07-23T02:44:54;15.60;66.70
64670;DHT22;51080;51.690;5.174;2022-07-23T02:51:08;15.50;66.90
64670;DHT22;51080;51.690;5.174;2022-07-23T02:57:22;15.50;66.90
64670;DHT22;51080;51.690;5.174;2022-07-23T03:03:36;15.40;66.80
64670;DHT22;51080;51.690;5.174;2022-07-23T03:09:50;15.30;67.20
64670;DHT22;51080;51.690;5.174;2022-07-23T03:16:06;15.20;67.40
64670;DHT22;51080;51.690;5.174;2022-07-23T03:22:21;15.10;67.30
64670;DHT22;51080;51.690;5.174;2022-07-23T03:28:36;15.00;67.50
64670;DHT22;51080;51.690;5.174;2022-07-23T03:34:51;15.00;67.70
64670;DHT22;51080;51.690;5.174;2022-07-23T03:41:06;15.00;67.70
64670;DHT22;51080;51.690;5.174;2022-07-23T03:47:20;14.90;67.60
64670;DHT22;51080;51.690;5.174;2022-07-23T03:53:34;14.90;67.60
64670;DHT22;51080;51.690;5.174;2022-07-23T03:59:49;14.80;67.80
64670;DHT22;51080;51.690;5.174;2022-07-23T04:06:05;14.80;68.00
64670;DHT22;51080;51.690;5.174;2022-07-23T04:12:19;14.80;67.90
64670;DHT22;51080;51.690;5.174;2022-07-23T04:18:33;14.70;67.90
64670;DHT22;51080;51.690;5.174;2022-07-23T04:24:47;14.70;68.00
64670;DHT22;51080;51.690;5.174;2022-07-23T04:31:02;14.80;68.10
64670;DHT22;51080;51.690;5.174;2022-07-23T04:37:15;14.80;68.00
64670;DHT22;51080;51.690;5.174;2022-07-23T04:43:31;14.90;68.10
64670;DHT22;51080;51.690;5.174;2022-07-23T04:49:45;15.00;68.20
64670;DHT22;51080;51.690;5.174;2022-07-23T04:56:00;15.10;68.20
64670;DHT22;51080;51.690;5.174;2022-07-23T05:02:14;15.40;68.10
64670;DHT22;51080;51.690;5.174;2022-07-23T05:08:29;15.50;68.10
64670;DHT22;51080;51.690;5.174;2022-07-23T05:14:44;15.40;68.00
64670;DHT22;51080;51.690;5.174;2022-07-23T05:21:19;15.40;68.40
64670;DHT22;51080;51.690;5.174;2022-07-23T05:27:33;15.50;68.50
64670;DHT22;51080;51.690;5.174;2022-07-23T05:33:47;15.60;68.70
64670;DHT22;51080;51.690;5.174;2022-07-23T05:40:06;15.70;70.60
64670;DHT22;51080;51.690;5.174;2022-07-23T05:46:22;15.80;70.60
64670;DHT22;51080;51.690;5.174;2022-07-23T05:52:37;15.80;69.90
64670;DHT22;51080;51.690;5.174;2022-07-23T05:58:52;15.90;70.30
64670;DHT22;51080;51.690;5.174;2022-07-23T06:05:08;16.00;74.70
64670;DHT22;51080;51.690;5.174;2022-07-23T06:11:23;16.10;72.40
64670;DHT22;51080;51.690;5.174;2022-07-23T06:17:36;16.10;69.80
64670;DHT22;51080;51.690;5.174;2022-07-23T06:23:51;16.30;69.50
64670;DHT22;51080;51.690;5.174;2022-07-23T06:30:06;16.30;69.20
64670;DHT22;51080;51.690;5.174;2022-07-23T06:36:21;16.50;68.70
64670;DHT22;51080;51.690;5.174;2022-07-23T06:42:36;16.60;68.70
64670;DHT22;51080;51.690;5.174;2022-07-23T06:48:51;16.70;69.10
64670;DHT22;51080;51.690;5.174;2022-07-23T06:55:06;16.90;68.80
64670;DHT22;51080;51.690;5.174;2022-07-23T07:01:21;17.00;68.30
64670;DHT22;51080;51.690;5.174;2022-07-23T07:07:36;17.20;67.90
64670;DHT22;51080;51.690;5.174;2022-07-23T07:13:51;17.30;68.00
64670;DHT22;51080;51.690;5.174;2022-07-23T07:20:06;17.50;67.50
64670;DHT22;51080;51.690;5.174;2022-07-23T07:26:21;17.60;67.50
64670;DHT22;51080;51.690;5.174;2022-07-23T07:32:35;17.80;66.80
64670;DHT22;51080;51.690;5.174;2022-07-23T07:38:50;17.90;66.60
64670;DHT22;51080;51.690;5.174;2022-07-23T07:45:05;18.10;66.60
64670;DHT22;51080;51.690;5.174;2022-07-23T07:51:20;18.40;65.70
64670;DHT22;51080;51.690;5.174;2022-07-23T07:57:35;18.60;65.10
64670;DHT22;51080;51.690;5.174;2022-07-23T08:03:50;18.70;64.70
64670;DHT22;51080;51.690;5.174;2022-07-23T08:10:07;18.90;64.60
64670;DHT22;51080;51.690;5.174;2022-07-23T08:16:22;19.20;64.50
64670;DHT22;51080;51.690;5.174;2022-07-23T08:22:57;19.30;63.60
64670;DHT22;51080;51.690;5.174;2022-07-23T08:29:13;19.50;63.20
64670;DHT22;51080;51.690;5.174;2022-07-23T08:35:33;19.70;62.60
64670;DHT22;51080;51.690;5.174;2022-07-23T08:41:49;19.80;62.10
64670;DHT22;51080;51.690;5.174;2022-07-23T08:48:07;20.10;60.30
64670;DHT22;51080;51.690;5.174;2022-07-23T08:54:22;20.80;59.20
64670;DHT22;51080;51.690;5.174;2022-07-23T09:00:38;21.80;57.20
64670;DHT22;51080;51.690;5.174;2022-07-23T09:06:54;22.80;56.40
64670;DHT22;51080;51.690;5.174;2022-07-23T09:20:08;27.30;50.10
64670;DHT22;51080;51.690;5.174;2022-07-23T09:26:35;29.20;47.60
64670;DHT22;51080;51.690;5.174;2022-07-23T09:33:10;31.70;42.70
64670;DHT22;51080;51.690;5.174;2022-07-23T09:39:32;32.60;41.20
64670;DHT22;51080;51.690;5.174;2022-07-23T09:45:48;33.50;38.50
64670;DHT22;51080;51.690;5.174;2022-07-23T09:52:05;34.70;37.90
64670;DHT22;51080;51.690;5.174;2022-07-23T09:58:21;35.70;37.10
64670;DHT22;51080;51.690;5.174;2022-07-23T10:04:38;35.50;38.50
64670;DHT22;51080;51.690;5.174;2022-07-23T10:10:54;35.90;38.80
64670;DHT22;51080;51.690;5.174;2022-07-23T10:17:09;35.80;38.70
64670;DHT22;51080;51.690;5.174;2022-07-23T10:23:33;36.40;38.40
64670;DHT22;51080;51.690;5.174;2022-07-23T10:30:00;37.30;37.40
64670;DHT22;51080;51.690;5.174;2022-07-23T10:36:23;38.00;37.30
64670;DHT22;51080;51.690;5.174;2022-07-23T10:42:41;38.40;36.40
64670;DHT22;51080;51.690;5.174;2022-07-23T10:49:22;38.40;36.30
64670;DHT22;51080;51.690;5.174;2022-07-23T10:55:43;37.40;35.10
64670;DHT22;51080;51.690;5.174;2022-07-23T11:02:21;37.20;35.30
64670;DHT22;51080;51.690;5.174;2022-07-23T11:08:35;37.60;36.10
64670;DHT22;51080;51.690;5.174;2022-07-23T11:15:11;37.80;35.90
64670;DHT22;51080;51.690;5.174;2022-07-23T11:27:54;37.50;36.30
64670;DHT22;51080;51.690;5.174;2022-07-23T11:34:39;37.30;37.10
64670;DHT22;51080;51.690;5.174;2022-07-23T11:41:01;37.10;36.40
64670;DHT22;51080;51.690;5.174;2022-07-23T11:47:25;36.90;37.90
64670;DHT22;51080;51.690;5.174;2022-07-23T11:53:49;36.70;35.20
64670;DHT22;51080;51.690;5.174;2022-07-23T12:00:14;36.50;37.90
64670;DHT22;51080;51.690;5.174;2022-07-23T12:06:38;36.60;37.50
64670;DHT22;51080;51.690;5.174;2022-07-23T12:13:05;36.60;35.80
64670;DHT22;51080;51.690;5.174;2022-07-23T12:19:28;36.40;37.10
64670;DHT22;51080;51.690;5.174;2022-07-23T12:26:00;36.40;37.10
64670;DHT22;51080;51.690;5.174;2022-07-23T12:32:27;36.50;34.60
64670;DHT22;51080;51.690;5.174;2022-07-23T12:38:51;36.50;35.60
64670;DHT22;51080;51.690;5.174;2022-07-23T12:45:13;36.20;36.00
64670;DHT22;51080;51.690;5.174;2022-07-23T12:51:39;36.00;35.90
64670;DHT22;51080;51.690;5.174;2022-07-23T12:58:07;36.00;36.70
64670;DHT22;51080;51.690;5.174;2022-07-23T13:04:31;36.50;37.00
64670;DHT22;51080;51.690;5.174;2022-07-23T13:10:54;36.90;35.50
64670;DHT22;51080;51.690;5.174;2022-07-23T13:17:15;36.90;36.00
64670;DHT22;51080;51.690;5.174;2022-07-23T13:23:41;36.80;34.50
64670;DHT22;51080;51.690;5.174;2022-07-23T13:30:17;34.60;37.30
64670;DHT22;51080;51.690;5.174;2022-07-23T13:36:45;34.10;38.50
64670;DHT22;51080;51.690;5.174;2022-07-23T13:43:14;34.90;37.00
64670;DHT22;51080;51.690;5.174;2022-07-23T13:49:36;35.40;36.40
64670;DHT22;51080;51.690;5.174;2022-07-23T13:56:10;36.20;37.00
64670;DHT22;51080;51.690;5.174;2022-07-23T14:02:29;37.00;35.30
64670;DHT22;51080;51.690;5.174;2022-07-23T14:08:51;35.30;37.60
64670;DHT22;51080;51.690;5.174;2022-07-23T14:15:16;34.80;38.00
64670;DHT22;51080;51.690;5.174;2022-07-23T14:21:33;35.80;36.40
64670;DHT22;51080;51.690;5.174;2022-07-23T14:27:56;34.60;38.40
64670;DHT22;51080;51.690;5.174;2022-07-23T14:34:16;35.30;37.50
64670;DHT22;51080;51.690;5.174;2022-07-23T14:40:35;35.10;37.40
64670;DHT22;51080;51.690;5.174;2022-07-23T14:46:55;33.60;35.60
64670;DHT22;51080;51.690;5.174;2022-07-23T14:53:13;32.60;38.30
64670;DHT22;51080;51.690;5.174;2022-07-23T14:59:35;32.40;38.70
64670;DHT22;51080;51.690;5.174;2022-07-23T15:05:55;32.20;39.30
64670;DHT22;51080;51.690;5.174;2022-07-23T15:12:17;33.90;37.50
64670;DHT22;51080;51.690;5.174;2022-07-23T15:18:36;34.70;36.40
64670;DHT22;51080;51.690;5.174;2022-07-23T15:25:09;34.70;37.30
64670;DHT22;51080;51.690;5.174;2022-07-23T15:31:26;35.00;37.40
64670;DHT22;51080;51.690;5.174;2022-07-23T15:37:46;34.30;38.00
64670;DHT22;51080;51.690;5.174;2022-07-23T15:44:05;32.70;39.70
64670;DHT22;51080;51.690;5.174;2022-07-23T15:50:23;31.30;40.40
64670;DHT22;51080;51.690;5.174;2022-07-23T15:56:44;31.20;41.00
64670;DHT22;51080;51.690;5.174;2022-07-23T16:03:03;30.90;40.60
64670;DHT22;51080;51.690;5.174;2022-07-23T16:09:22;30.20;41.30
64670;DHT22;51080;51.690;5.174;2022-07-23T16:15:40;29.90;41.30
64670;DHT22;51080;51.690;5.174;2022-07-23T16:21:59;29.70;41.20
64670;DHT22;51080;51.690;5.174;2022-07-23T16:28:18;29.20;41.80
64670;DHT22;51080;51.690;5.174;2022-07-23T16:34:41;29.00;42.20
64670;DHT22;51080;51.690;5.174;2022-07-23T16:40:59;28.80;42.30
64670;DHT22;51080;51.690;5.174;2022-07-23T16:47:27;28.80;42.50
64670;DHT22;51080;51.690;5.174;2022-07-23T16:53:47;28.60;42.60
64670;DHT22;51080;51.690;5.174;2022-07-23T17:00:07;28.50;42.60
64670;DHT22;51080;51.690;5.174;2022-07-23T17:06:27;28.20;42.70
64670;DHT22;51080;51.690;5.174;2022-07-23T17:13:01;27.90;43.20
64670;DHT22;51080;51.690;5.174;2022-07-23T17:19:34;27.70;43.50
64670;DHT22;51080;51.690;5.174;2022-07-23T17:25:57;27.40;44.00
64670;DHT22;51080;51.690;5.174;2022-07-23T17:32:11;27.20;44.10
64670;DHT22;51080;51.690;5.174;2022-07-23T17:38:28;27.00;44.20
64670;DHT22;51080;51.690;5.174;2022-07-23T17:44:43;26.80;44.20
64670;DHT22;51080;51.690;5.174;2022-07-23T17:50:57;26.90;44.00
64670;DHT22;51080;51.690;5.174;2022-07-23T17:57:11;26.80;43.90
64670;DHT22;51080;51.690;5.174;2022-07-23T18:03:26;26.70;44.30
64670;DHT22;51080;51.690;5.174;2022-07-23T18:09:40;26.60;44.40
64670;DHT22;51080;51.690;5.174;2022-07-23T18:15:54;26.50;45.00
64670;DHT22;51080;51.690;5.174;2022-07-23T18:22:10;26.40;44.90
64670;DHT22;51080;51.690;5.174;2022-07-23T18:28:24;26.20;45.00
64670;DHT22;51080;51.690;5.174;2022-07-23T18:34:39;26.00;45.60
64670;DHT22;51080;51.690;5.174;2022-07-23T18:40:53;25.70;45.90
64670;DHT22;51080;51.690;5.174;2022-07-23T18:47:08;25.40;46.20
64670;DHT22;51080;51.690;5.174;2022-07-23T18:53:23;25.10;46.70
64670;DHT22;51080;51.690;5.174;2022-07-23T18:59:38;24.90;47.20
64670;DHT22;51080;51.690;5.174;2022-07-23T19:05:52;24.60;47.70
64670;DHT22;51080;51.690;5.174;2022-07-23T19:12:07;24.30;48.20
64670;DHT22;51080;51.690;5.174;2022-07-23T19:18:22;24.10;48.70
64670;DHT22;51080;51.690;5.174;2022-07-23T19:24:36;23.80;49.00
64670;DHT22;51080;51.690;5.174;2022-07-23T19:30:51;23.60;49.10
64670;DHT22;51080;51.690;5.174;2022-07-23T19:37:06;23.40;49.40
64670;DHT22;51080;51.690;5.174;2022-07-23T19:43:23;23.20;49.40
64670;DHT22;51080;51.690;5.174;2022-07-23T19:49:41;23.00;49.70
64670;DHT22;51080;51.690;5.174;2022-07-23T19:55:56;22.80;49.90
64670;DHT22;51080;51.690;5.174;2022-07-23T20:02:11;22.60;50.30
64670;DHT22;51080;51.690;5.174;2022-07-23T20:08:28;22.40;50.70
64670;DHT22;51080;51.690;5.174;2022-07-23T20:14:46;22.20;50.70
64670;DHT22;51080;51.690;5.174;2022-07-23T20:21:03;22.10;50.80
64670;DHT22;51080;51.690;5.174;2022-07-23T20:27:22;22.00;51.10
64670;DHT22;51080;51.690;5.174;2022-07-23T20:33:36;21.80;51.50
64670;DHT22;51080;51.690;5.174;2022-07-23T20:39:52;21.70;51.60
64670;DHT22;51080;51.690;5.174;2022-07-23T20:46:06;21.60;51.80
64670;DHT22;51080;51.690;5.174;2022-07-23T20:52:21;21.40;52.00
64670;DHT22;51080;51.690;5.174;2022-07-23T20:58:36;21.30;52.20
64670;DHT22;51080;51.690;5.174;2022-07-23T21:04:56;21.20;52.60
64670;DHT22;51080;51.690;5.174;2022-07-23T21:11:13;21.10;53.10
64670;DHT22;51080;51.690;5.174;2022-07-23T21:17:28;21.00;53.00
64670;DHT22;51080;51.690;5.174;2022-07-23T21:23:46;20.80;53.10
64670;DHT22;51080;51.690;5.174;2022-07-23T21:30:01;20.70;53.40
64670;DHT22;51080;51.690;5.174;2022-07-23T21:36:16;20.60;53.50
64670;DHT22;51080;51.690;5.174;2022-07-23T21:42:31;20.50;53.80
64670;DHT22;51080;51.690;5.174;2022-07-23T21:48:46;20.40;54.20
64670;DHT22;51080;51.690;5.174;2022-07-23T21:55:01;20.30;54.30
64670;DHT22;51080;51.690;5.174;2022-07-23T22:01:17;20.20;54.70
64670;DHT22;51080;51.690;5.174;2022-07-23T22:07:31;20.10;54.40
64670;DHT22;51080;51.690;5.174;2022-07-23T22:13:46;20.00;54.80
64670;DHT22;51080;51.690;5.174;2022-07-23T22:20:00;19.90;54.90
64670;DHT22;51080;51.690;5.174;2022-07-23T22:26:15;19.80;55.20
64670;DHT22;51080;51.690;5.174;2022-07-23T22:32:29;19.80;55.50
64670;DHT22;51080;51.690;5.174;2022-07-23T22:38:53;19.70;55.20
64670;DHT22;51080;51.690;5.174;2022-07-23T22:45:09;19.70;55.40
64670;DHT22;51080;51.690;5.174;2022-07-23T22:51:24;19.60;55.20
64670;DHT22;51080;51.690;5.174;2022-07-23T22:57:38;19.50;55.40
64670;DHT22;51080;51.690;5.174;2022-07-23T23:03:53;19.50;55.70
64670;DHT22;51080;51.690;5.174;2022-07-23T23:10:08;19.40;56.00
64670;DHT22;51080;51.690;5.174;2022-07-23T23:16:23;19.30;56.40
64670;DHT22;51080;51.690;5.174;2022-07-23T23:22:37;19.20;56.50
64670;DHT22;51080;51.690;5.174;2022-07-23T23:28:52;19.10;56.50
64670;DHT22;51080;51.690;5.174;2022-07-23T23:35:07;19.10;56.80
64670;DHT22;51080;51.690;5.174;2022-07-23T23:41:23;19.00;56.80
64670;DHT22;51080;51.690;5.174;2022-07-23T23:47:38;18.90;57.00
64670;DHT22;51080;51.690;5.174;2022-07-23T23:53:52;18.80;57.20
